Terminal Aerodrome Forecast
Issued by NWS Shreveport, LA

Home | Current Version | Previous Version | Text Only | Print | Product List | Glossary On
Versions: 1 2 3 4 5 6 7 8 9 10 11 12 13 14 15
291
FTUS44 KSHV 221720
TAFTYR
TAF
KTYR 221720Z 2218/2318 32008KT P6SM BKN014
     FM222000 34012KT P6SM SCT025
     FM230000 34007KT P6SM SKC
     FM230600 VRB04KT P6SM SKC
     FM231600 29007KT P6SM SKC=

USA.gov is the U.S. government's official web portal to all federal, state and local government web resources and services.